Time;durP1;ratioP1;P1;durP2;ratioP2;P2;SDS_P1;SDS_P2;PMS_P1;PMS_P2;Temp;Humidity;BMP_temperature;BMP_pressure;BME280_temperature;BME280_humidity;BME280_pressure;Samples;Min_cycle;Max_cycle;Signal;HPM_P1;HPM_P2
2022/01/20 00:03:23;;;;;;;;;;;4.60;99.90;;;;;;5135930;27;19908;-78
2022/01/20 00:25:58;;;;;;;;;;;4.60;99.90;;;;;;5089184;27;19949;-79
2022/01/20 00:27:54;;;;;;;;;;;4.60;99.90;;;;;;5116041;27;19950;-78
2022/01/20 00:32:58;;;;;;;;;;;4.40;99.90;;;;;;5134688;27;19941;-79
2022/01/20 00:35:28;;;;;;;;;;;4.40;99.90;;;;;;5134868;27;20448;-76
2022/01/20 00:37:53;;;;;;;;;;;4.30;99.90;;;;;;5134828;27;20428;-79
2022/01/20 00:40:19;;;;;;;;;;;4.30;99.90;;;;;;5135139;27;19908;-79
2022/01/20 00:42:44;;;;;;;;;;;4.20;99.90;;;;;;5134136;27;19990;-78
2022/01/20 00:45:11;;;;;;;;;;;4.20;99.90;;;;;;5134764;27;19939;-79
2022/01/20 00:47:37;;;;;;;;;;;4.10;99.90;;;;;;5116104;27;19912;-79
2022/01/20 00:50:04;;;;;;;;;;;4.10;99.90;;;;;;5135063;27;19914;-80
2022/01/20 00:52:29;;;;;;;;;;;4.10;99.90;;;;;;5133913;27;19919;-79
2022/01/20 00:54:55;;;;;;;;;;;4.00;99.90;;;;;;5134889;27;19908;-79
2022/01/20 00:57:21;;;;;;;;;;;4.00;99.90;;;;;;5134611;27;19914;-78
2022/01/20 00:59:46;;;;;;;;;;;4.00;99.90;;;;;;5133729;27;19918;-77
2022/01/20 01:02:12;;;;;;;;;;;4.00;99.90;;;;;;5134934;27;19990;-79
2022/01/20 01:04:40;;;;;;;;;;;3.90;99.90;;;;;;5134494;27;19914;-78
2022/01/20 01:09:50;;;;;;;;;;;3.90;99.90;;;;;;5134597;27;19915;-78
2022/01/20 01:12:25;;;;;;;;;;;3.90;99.90;;;;;;5134597;27;20264;-78
2022/01/20 01:14:52;;;;;;;;;;;3.90;99.90;;;;;;5135075;27;19907;-78
2022/01/20 01:20:09;;;;;;;;;;;3.80;99.90;;;;;;5134195;27;19951;-78
2022/01/20 01:22:34;;;;;;;;;;;3.80;99.90;;;;;;5134107;27;20100;-79
2022/01/20 01:25:01;;;;;;;;;;;3.80;99.90;;;;;;5134524;27;20074;-79
2022/01/20 01:27:29;;;;;;;;;;;3.70;99.90;;;;;;5134349;27;20271;-76
2022/01/20 01:32:26;;;;;;;;;;;3.70;99.90;;;;;;5134619;27;20402;-77
2022/01/20 01:34:53;;;;;;;;;;;3.70;99.90;;;;;;5134346;27;19913;-78
2022/01/20 01:38:23;;;;;;;;;;;3.60;99.90;;;;;;5134348;27;20429;-77
2022/01/20 01:40:12;;;;;;;;;;;3.70;99.90;;;;;;5133966;27;19908;-78
2022/01/20 01:42:47;;;;;;;;;;;3.60;99.90;;;;;;5133433;27;19908;-77
2022/01/20 01:45:25;;;;;;;;;;;3.60;99.90;;;;;;5134370;27;20006;-77
2022/01/20 01:47:51;;;;;;;;;;;3.60;99.90;;;;;;5133349;27;19956;-78
2022/01/20 01:50:16;;;;;;;;;;;3.60;99.90;;;;;;5134390;27;19907;-78
2022/01/20 01:52:42;;;;;;;;;;;3.50;99.90;;;;;;5115090;27;20295;-78
2022/01/20 01:55:08;;;;;;;;;;;3.50;99.90;;;;;;5133949;27;19960;-79
2022/01/20 01:57:34;;;;;;;;;;;3.50;99.90;;;;;;5133448;27;19908;-79
2022/01/20 01:59:59;;;;;;;;;;;3.40;99.90;;;;;;5134310;27;19930;-78
2022/01/20 02:02:25;;;;;;;;;;;3.50;99.90;;;;;;5134050;27;19907;-78
2022/01/20 02:04:51;;;;;;;;;;;3.40;99.90;;;;;;5133134;27;20352;-78
2022/01/20 02:20:24;;;;;;;;;;;3.40;99.90;;;;;;5133733;27;20356;-78
2022/01/20 02:22:53;;;;;;;;;;;3.40;99.90;;;;;;5132849;27;19911;-78
2022/01/20 02:25:19;;;;;;;;;;;3.40;99.90;;;;;;5149009;27;19911;-78
2022/01/20 02:27:45;;;;;;;;;;;3.40;99.90;;;;;;5153667;27;19963;-78
2022/01/20 02:30:10;;;;;;;;;;;3.40;99.90;;;;;;5154473;27;19994;-78
2022/01/20 02:32:36;;;;;;;;;;;3.40;99.90;;;;;;5153242;27;19915;-78
2022/01/20 02:35:03;;;;;;;;;;;3.30;99.90;;;;;;5154365;27;19907;-78
2022/01/20 02:37:29;;;;;;;;;;;3.40;99.90;;;;;;5154392;27;19930;-78
2022/01/20 02:44:51;;;;;;;;;;;3.40;99.90;;;;;;5153419;27;19910;-79
2022/01/20 02:45:28;;;;;;;;;;;3.40;99.90;;;;;;5154279;27;20363;-79
2022/01/20 02:47:53;;;;;;;;;;;3.40;99.90;;;;;;5153489;27;19908;-77
2022/01/20 02:50:19;;;;;;;;;;;3.50;99.90;;;;;;5154388;27;19907;-78
2022/01/20 02:52:44;;;;;;;;;;;3.40;99.90;;;;;;5134726;27;19919;-79
2022/01/20 02:55:10;;;;;;;;;;;3.40;99.90;;;;;;5153863;27;20313;-76
2022/01/20 02:57:36;;;;;;;;;;;3.40;99.90;;;;;;5153326;27;19907;-77
2022/01/20 03:00:05;;;;;;;;;;;3.40;99.90;;;;;;5149361;27;19972;-77
2022/01/20 03:02:30;;;;;;;;;;;3.30;99.90;;;;;;5133045;28;20360;-78
2022/01/20 03:04:56;;;;;;;;;;;3.40;99.90;;;;;;5132524;28;19919;-77
2022/01/20 03:07:21;;;;;;;;;;;3.40;99.90;;;;;;5133290;28;19912;-77
2022/01/20 03:09:47;;;;;;;;;;;3.30;99.90;;;;;;5132153;27;19960;-78
2022/01/20 03:12:13;;;;;;;;;;;3.30;99.90;;;;;;5133353;28;19916;-78
2022/01/20 03:14:38;;;;;;;;;;;3.30;99.90;;;;;;5132524;28;19911;-78
2022/01/20 03:17:04;;;;;;;;;;;3.40;99.90;;;;;;5133235;28;19914;-79
2022/01/20 03:19:30;;;;;;;;;;;3.40;99.90;;;;;;5133246;28;20312;-79
2022/01/20 03:21:56;;;;;;;;;;;3.40;99.90;;;;;;5113982;28;19904;-78
2022/01/20 03:24:22;;;;;;;;;;;3.40;99.90;;;;;;5132842;28;19915;-77
2022/01/20 03:26:47;;;;;;;;;;;3.40;99.90;;;;;;5132055;28;20376;-77
2022/01/20 03:29:13;;;;;;;;;;;3.30;99.90;;;;;;5133622;27;20021;-77
2022/01/20 03:31:39;;;;;;;;;;;3.30;99.90;;;;;;5136038;27;19908;-77
2022/01/20 03:34:05;;;;;;;;;;;3.30;99.90;;;;;;5137102;27;19911;-78
2022/01/20 03:36:30;;;;;;;;;;;3.30;99.90;;;;;;5150057;27;19911;-79
2022/01/20 03:38:56;;;;;;;;;;;3.30;99.90;;;;;;5159922;27;20577;-78
2022/01/20 03:41:21;;;;;;;;;;;3.20;99.90;;;;;;5159421;27;19971;-78
2022/01/20 03:43:47;;;;;;;;;;;3.20;99.90;;;;;;5156745;27;19943;-78
2022/01/20 03:46:13;;;;;;;;;;;3.20;99.90;;;;;;5157497;27;19993;-77
2022/01/20 03:48:54;;;;;;;;;;;3.10;99.90;;;;;;5156525;27;19907;-75
2022/01/20 03:51:22;;;;;;;;;;;3.10;99.90;;;;;;5157542;27;19907;-77
2022/01/20 03:53:49;;;;;;;;;;;3.00;99.90;;;;;;5156493;27;19915;-77
2022/01/20 03:56:15;;;;;;;;;;;3.00;99.90;;;;;;5157195;27;19911;-77
2022/01/20 03:58:41;;;;;;;;;;;3.00;99.90;;;;;;5137882;27;19907;-78
2022/01/20 04:01:06;;;;;;;;;;;3.00;99.90;;;;;;5157235;27;19908;-78
2022/01/20 04:03:32;;;;;;;;;;;2.90;99.90;;;;;;5157312;27;19907;-78
2022/01/20 04:05:57;;;;;;;;;;;2.90;99.90;;;;;;5156442;27;20216;-77
2022/01/20 04:08:34;;;;;;;;;;;2.90;99.90;;;;;;5157230;27;19907;-77
2022/01/20 04:11:00;;;;;;;;;;;2.80;99.90;;;;;;5156011;27;19926;-77
2022/01/20 04:13:31;;;;;;;;;;;2.80;99.90;;;;;;5139130;27;19941;-78
2022/01/20 04:16:01;;;;;;;;;;;2.80;99.90;;;;;;5135160;27;20061;-77
2022/01/20 04:18:27;;;;;;;;;;;2.70;99.90;;;;;;5136092;27;19911;-78
2022/01/20 04:20:53;;;;;;;;;;;2.70;99.90;;;;;;5135128;27;19907;-77
2022/01/20 04:23:19;;;;;;;;;;;2.80;99.90;;;;;;5136487;27;19907;-77
2022/01/20 04:25:44;;;;;;;;;;;2.70;99.90;;;;;;5135292;27;20005;-77
2022/01/20 04:28:10;;;;;;;;;;;2.70;99.90;;;;;;5135765;27;20278;-77
2022/01/20 04:30:36;;;;;;;;;;;2.70;99.90;;;;;;5135745;27;19907;-77
2022/01/20 04:33:01;;;;;;;;;;;2.70;99.90;;;;;;5135113;27;20411;-77
2022/01/20 04:35:27;;;;;;;;;;;2.70;99.90;;;;;;5117382;27;19907;-77
2022/01/20 04:37:55;;;;;;;;;;;2.70;99.90;;;;;;5135035;27;20249;-77
2022/01/20 04:40:21;;;;;;;;;;;2.70;99.90;;;;;;5117299;27;19949;-77
2022/01/20 04:42:48;;;;;;;;;;;2.70;99.90;;;;;;5134769;27;19907;-77
2022/01/20 04:45:20;;;;;;;;;;;2.60;99.90;;;;;;5135605;27;19908;-76
2022/01/20 04:47:54;;;;;;;;;;;2.60;99.90;;;;;;5137949;27;19915;-76
2022/01/20 04:58:32;;;;;;;;;;;2.50;99.90;;;;;;5156049;27;19956;-77
2022/01/20 05:00:59;;;;;;;;;;;2.50;99.90;;;;;;5136750;27;19911;-77
2022/01/20 05:03:25;;;;;;;;;;;2.40;99.90;;;;;;5155875;27;19911;-77
2022/01/20 05:05:50;;;;;;;;;;;2.40;99.90;;;;;;5155085;27;20344;-77
2022/01/20 05:08:22;;;;;;;;;;;2.40;99.90;;;;;;5156011;27;19911;-76
2022/01/20 05:10:47;;;;;;;;;;;2.40;99.90;;;;;;5154548;27;19966;-76
2022/01/20 05:13:22;;;;;;;;;;;2.40;99.90;;;;;;5155586;27;19977;-77
2022/01/20 05:15:48;;;;;;;;;;;2.40;99.90;;;;;;5137788;27;19972;-77
2022/01/20 05:18:14;;;;;;;;;;;2.40;99.90;;;;;;5155544;27;19914;-78
2022/01/20 05:20:40;;;;;;;;;;;2.40;99.90;;;;;;5155748;27;19911;-77
2022/01/20 05:23:05;;;;;;;;;;;2.40;99.90;;;;;;5154705;27;20371;-77
2022/01/20 05:25:31;;;;;;;;;;;2.40;99.90;;;;;;5155392;27;19907;-76
2022/01/20 05:27:57;;;;;;;;;;;2.40;99.90;;;;;;5154876;27;20051;-77
2022/01/20 05:30:22;;;;;;;;;;;2.40;99.90;;;;;;5136703;27;19962;-77
2022/01/20 05:32:48;;;;;;;;;;;2.50;99.90;;;;;;5154508;27;19915;-77
2022/01/20 05:35:14;;;;;;;;;;;2.40;99.90;;;;;;5155379;27;19911;-77
2022/01/20 05:37:39;;;;;;;;;;;2.40;99.90;;;;;;5155269;27;20001;-77
2022/01/20 05:40:05;;;;;;;;;;;2.40;99.90;;;;;;5154156;27;20083;-76
2022/01/20 05:42:31;;;;;;;;;;;2.50;99.90;;;;;;5154728;27;19914;-76
2022/01/20 05:44:56;;;;;;;;;;;2.50;99.90;;;;;;5135767;27;19907;-77
2022/01/20 05:47:27;;;;;;;;;;;2.40;99.90;;;;;;5155161;27;19913;-78
2022/01/20 05:49:53;;;;;;;;;;;2.40;99.90;;;;;;5154316;27;19907;-77
2022/01/20 05:52:19;;;;;;;;;;;2.40;99.90;;;;;;5154244;27;20467;-77
2022/01/20 05:54:45;;;;;;;;;;;2.30;99.90;;;;;;5154735;27;19911;-75
2022/01/20 05:57:11;;;;;;;;;;;2.30;99.90;;;;;;5155763;27;19907;-78
2022/01/20 05:59:36;;;;;;;;;;;2.30;99.90;;;;;;5154428;27;20271;-77
2022/01/20 06:02:11;;;;;;;;;;;2.30;99.90;;;;;;5154209;27;19918;-77
2022/01/20 06:04:37;;;;;;;;;;;2.30;99.90;;;;;;5154792;27;20005;-77
2022/01/20 06:07:02;;;;;;;;;;;2.30;99.90;;;;;;5154006;27;20386;-78
2022/01/20 06:09:28;;;;;;;;;;;2.20;99.90;;;;;;5154600;27;19919;-78
2022/01/20 06:11:54;;;;;;;;;;;2.20;99.90;;;;;;5154015;27;19919;-77
2022/01/20 06:14:20;;;;;;;;;;;2.20;99.90;;;;;;5154877;27;19907;-78
2022/01/20 06:16:45;;;;;;;;;;;2.20;99.90;;;;;;5136025;27;19907;-76
2022/01/20 06:19:12;;;;;;;;;;;2.20;99.90;;;;;;5135498;27;19965;-78
2022/01/20 06:21:41;;;;;;;;;;;2.20;99.90;;;;;;5154521;27;20006;-78
2022/01/20 06:24:07;;;;;;;;;;;2.10;99.90;;;;;;5135210;27;19907;-78
2022/01/20 06:26:33;;;;;;;;;;;2.10;99.90;;;;;;5154517;27;19960;-76
2022/01/20 06:28:58;;;;;;;;;;;2.10;99.90;;;;;;5153634;27;20001;-76
2022/01/20 06:31:24;;;;;;;;;;;2.10;99.90;;;;;;5154411;27;20345;-76
2022/01/20 06:33:49;;;;;;;;;;;2.10;99.90;;;;;;5153783;27;20009;-74
2022/01/20 06:36:15;;;;;;;;;;;2.10;99.90;;;;;;5153457;27;19940;-76
2022/01/20 06:38:42;;;;;;;;;;;2.10;99.90;;;;;;5154505;27;20312;-76
2022/01/20 06:41:07;;;;;;;;;;;2.10;99.90;;;;;;5153295;27;19921;-77
2022/01/20 06:43:33;;;;;;;;;;;2.10;99.90;;;;;;5154217;27;19997;-77
2022/01/20 06:45:59;;;;;;;;;;;2.10;99.90;;;;;;5153384;27;19907;-77
2022/01/20 06:48:24;;;;;;;;;;;2.00;99.90;;;;;;5154171;27;20324;-77
2022/01/20 06:50:50;;;;;;;;;;;2.10;99.90;;;;;;5162255;27;19971;-75
2022/01/20 06:53:15;;;;;;;;;;;2.00;99.90;;;;;;5163489;27;19950;-77
2022/01/20 06:55:41;;;;;;;;;;;2.00;99.90;;;;;;5154021;27;20370;-77
2022/01/20 06:58:07;;;;;;;;;;;2.00;99.90;;;;;;5134744;27;20010;-77
2022/01/20 07:00:32;;;;;;;;;;;2.00;99.90;;;;;;5154002;27;20313;-77
2022/01/20 07:02:58;;;;;;;;;;;2.00;99.90;;;;;;5153102;27;19914;-76
2022/01/20 07:05:24;;;;;;;;;;;2.00;99.90;;;;;;5157732;27;19907;-76
2022/01/20 07:07:49;;;;;;;;;;;2.00;99.90;;;;;;5157964;27;20392;-76
2022/01/20 07:10:19;;;;;;;;;;;2.00;99.90;;;;;;5157533;27;19911;-77
2022/01/20 07:12:45;;;;;;;;;;;1.90;99.90;;;;;;5146301;27;20002;-77
2022/01/20 07:15:12;;;;;;;;;;;2.00;99.90;;;;;;5136446;27;20494;-77
2022/01/20 07:17:37;;;;;;;;;;;2.00;99.90;;;;;;5137092;27;20409;-76
2022/01/20 07:20:03;;;;;;;;;;;2.00;99.90;;;;;;5117946;27;19908;-76
2022/01/20 07:22:29;;;;;;;;;;;2.10;99.90;;;;;;5136721;27;19966;-76
2022/01/20 07:24:54;;;;;;;;;;;2.10;99.90;;;;;;5136210;27;19964;-74
2022/01/20 07:27:20;;;;;;;;;;;2.10;99.90;;;;;;5137075;27;20051;-76
2022/01/20 07:29:46;;;;;;;;;;;2.10;99.90;;;;;;5136959;27;19914;-78
2022/01/20 07:32:11;;;;;;;;;;;2.10;99.90;;;;;;5117573;27;20096;-78
2022/01/20 07:34:37;;;;;;;;;;;2.10;99.90;;;;;;5136455;27;19992;-77
2022/01/20 07:37:04;;;;;;;;;;;2.10;99.90;;;;;;5135811;27;19907;-76
2022/01/20 07:39:29;;;;;;;;;;;2.00;99.90;;;;;;5136223;27;19915;-76
2022/01/20 07:41:55;;;;;;;;;;;2.00;99.90;;;;;;5135553;27;19915;-75
2022/01/20 07:44:20;;;;;;;;;;;2.00;99.90;;;;;;5136884;27;19914;-77
2022/01/20 07:46:47;;;;;;;;;;;2.00;99.90;;;;;;5136133;27;20429;-75
2022/01/20 07:49:13;;;;;;;;;;;2.00;99.90;;;;;;5151393;27;19917;-77
2022/01/20 07:51:38;;;;;;;;;;;2.00;99.90;;;;;;5156905;27;19911;-77
2022/01/20 07:54:04;;;;;;;;;;;2.00;99.90;;;;;;5137693;27;20075;-78
2022/01/20 07:56:30;;;;;;;;;;;2.00;99.90;;;;;;5157677;27;20376;-78
2022/01/20 07:58:55;;;;;;;;;;;2.00;99.90;;;;;;5156181;27;19914;-76
2022/01/20 08:01:22;;;;;;;;;;;2.00;99.90;;;;;;5156946;27;19959;-77
2022/01/20 08:03:48;;;;;;;;;;;2.00;99.90;;;;;;5156864;27;19954;-76
2022/01/20 08:06:14;;;;;;;;;;;2.00;99.90;;;;;;5156251;27;19981;-77
2022/01/20 08:08:39;;;;;;;;;;;1.90;99.90;;;;;;5156270;27;19911;-76
2022/01/20 08:11:05;;;;;;;;;;;1.90;99.90;;;;;;5156008;27;19930;-77
2022/01/20 08:13:30;;;;;;;;;;;1.90;99.90;;;;;;5156794;27;20017;-77
2022/01/20 08:15:56;;;;;;;;;;;1.90;99.90;;;;;;5155397;27;19907;-75
2022/01/20 08:18:22;;;;;;;;;;;1.80;99.90;;;;;;5156757;27;19907;-78
2022/01/20 08:20:47;;;;;;;;;;;1.80;99.90;;;;;;5156553;27;19908;-78
2022/01/20 08:23:13;;;;;;;;;;;1.90;99.90;;;;;;5154583;27;20363;-78
2022/01/20 08:25:40;;;;;;;;;;;1.90;99.90;;;;;;5125403;27;20245;-77
2022/01/20 08:28:05;;;;;;;;;;;1.90;99.90;;;;;;5145714;27;20034;-77
2022/01/20 08:30:31;;;;;;;;;;;1.90;99.90;;;;;;5135766;27;20406;-78
2022/01/20 08:32:57;;;;;;;;;;;1.80;99.90;;;;;;5138366;27;19915;-75
2022/01/20 08:35:23;;;;;;;;;;;1.80;99.90;;;;;;5135644;27;19907;-78
2022/01/20 08:37:48;;;;;;;;;;;1.80;99.90;;;;;;5135365;27;19908;-78
2022/01/20 08:40:22;;;;;;;;;;;1.80;99.90;;;;;;5134841;27;19908;-78
2022/01/20 08:42:49;;;;;;;;;;;1.80;99.90;;;;;;5135720;27;20355;-78
2022/01/20 08:45:16;;;;;;;;;;;1.80;99.90;;;;;;5134527;27;20394;-78
2022/01/20 08:47:42;;;;;;;;;;;1.80;99.90;;;;;;5116733;27;19915;-78
2022/01/20 08:50:09;;;;;;;;;;;1.80;99.90;;;;;;5134547;27;19915;-78
2022/01/20 08:52:35;;;;;;;;;;;1.80;99.90;;;;;;5116813;27;19920;-78
2022/01/20 08:55:01;;;;;;;;;;;1.80;99.90;;;;;;5148200;27;20404;-76
2022/01/20 08:57:27;;;;;;;;;;;1.80;99.90;;;;;;5155642;27;19914;-78
2022/01/20 08:59:53;;;;;;;;;;;1.80;99.90;;;;;;5155636;27;20003;-78
2022/01/20 09:02:19;;;;;;;;;;;1.90;99.90;;;;;;5118143;27;19914;-79
2022/01/20 09:04:44;;;;;;;;;;;1.90;99.90;;;;;;5140431;27;19919;-77
2022/01/20 09:07:10;;;;;;;;;;;1.90;99.90;;;;;;5145032;27;19997;-78
2022/01/20 09:09:42;;;;;;;;;;;1.90;99.90;;;;;;5150475;27;20005;-77
2022/01/20 09:15:27;;;;;;;;;;;2.00;99.90;;;;;;5154340;27;19919;-77
2022/01/20 09:17:38;;;;;;;;;;;2.00;99.90;;;;;;5155337;27;19956;-77
2022/01/20 09:20:04;;;;;;;;;;;2.10;99.90;;;;;;5154320;27;19911;-78
2022/01/20 09:22:31;;;;;;;;;;;2.10;99.90;;;;;;5155277;27;19998;-79
2022/01/20 09:24:56;;;;;;;;;;;2.10;99.90;;;;;;5155390;27;19908;-77
2022/01/20 09:27:22;;;;;;;;;;;2.20;99.90;;;;;;5153121;27;19915;-78
2022/01/20 09:29:47;;;;;;;;;;;2.30;99.90;;;;;;5155904;27;19915;-78
2022/01/20 09:32:16;;;;;;;;;;;2.30;99.90;;;;;;5154582;27;20272;-79
2022/01/20 09:34:41;;;;;;;;;;;2.30;99.90;;;;;;5138154;27;20353;-79
2022/01/20 09:37:07;;;;;;;;;;;2.40;99.90;;;;;;5148579;27;19963;-80
2022/01/20 09:39:34;;;;;;;;;;;2.50;99.90;;;;;;5152961;27;19907;-77
2022/01/20 09:41:59;;;;;;;;;;;2.50;99.90;;;;;;5140930;27;19950;-79
2022/01/20 09:44:25;;;;;;;;;;;2.50;99.90;;;;;;5115236;27;19955;-78
2022/01/20 09:46:51;;;;;;;;;;;2.60;99.90;;;;;;5133591;27;19911;-78
2022/01/20 09:49:24;;;;;;;;;;;2.60;99.90;;;;;;5170376;27;19919;-78
2022/01/20 09:51:49;;;;;;;;;;;2.70;99.90;;;;;;5150824;27;19964;-79
2022/01/20 09:54:15;;;;;;;;;;;2.70;99.90;;;;;;5150179;27;19939;-78
2022/01/20 09:56:44;;;;;;;;;;;2.70;99.90;;;;;;5151113;27;19994;-78
2022/01/20 09:59:10;;;;;;;;;;;2.70;99.90;;;;;;5150272;27;19908;-78
2022/01/20 10:01:43;;;;;;;;;;;2.70;99.90;;;;;;5153478;27;19911;-80
2022/01/20 10:04:18;;;;;;;;;;;2.70;99.90;;;;;;5164936;27;20281;-78
2022/01/20 10:06:54;;;;;;;;;;;2.70;99.90;;;;;;5167089;27;19908;-78
2022/01/20 10:09:33;;;;;;;;;;;2.70;99.90;;;;;;5162434;27;19915;-77
2022/01/20 10:11:59;;;;;;;;;;;2.70;99.90;;;;;;5151306;27;19918;-78
2022/01/20 10:14:24;;;;;;;;;;;2.80;99.90;;;;;;5150377;27;19903;-78
2022/01/20 10:16:50;;;;;;;;;;;2.80;99.90;;;;;;5150893;27;20268;-77
2022/01/20 10:19:23;;;;;;;;;;;2.80;99.90;;;;;;5150250;27;19907;-77
2022/01/20 10:21:49;;;;;;;;;;;2.80;99.90;;;;;;5150957;27;19907;-76
2022/01/20 10:24:15;;;;;;;;;;;2.90;99.90;;;;;;5149641;27;20374;-77
2022/01/20 10:26:41;;;;;;;;;;;2.80;99.90;;;;;;5150405;27;20345;-77
2022/01/20 10:29:14;;;;;;;;;;;2.90;99.90;;;;;;5149750;27;19911;-74
2022/01/20 10:31:41;;;;;;;;;;;2.90;99.90;;;;;;5150174;27;19911;-77
2022/01/20 10:34:30;;;;;;;;;;;3.00;99.90;;;;;;5149833;27;19907;-75
2022/01/20 10:37:02;;;;;;;;;;;3.00;99.90;;;;;;5150446;27;19912;-78
2022/01/20 10:39:29;;;;;;;;;;;3.10;99.90;;;;;;5149480;27;20653;-78
2022/01/20 10:42:05;;;;;;;;;;;3.30;99.90;;;;;;5150400;27;19908;-78
2022/01/20 10:45:00;;;;;;;;;;;3.40;99.90;;;;;;5149507;27;19907;-78
2022/01/20 10:47:27;;;;;;;;;;;3.50;99.90;;;;;;5124206;27;20061;-79
2022/01/20 10:49:53;;;;;;;;;;;3.60;99.90;;;;;;5148704;27;19926;-78
2022/01/20 10:52:23;;;;;;;;;;;3.70;99.90;;;;;;5148325;27;19911;-78
2022/01/20 10:54:49;;;;;;;;;;;3.80;99.90;;;;;;5150065;27;19907;-79
2022/01/20 10:57:16;;;;;;;;;;;3.90;99.90;;;;;;5149347;27;19911;-78
2022/01/20 10:59:48;;;;;;;;;;;4.00;99.90;;;;;;5142384;27;19908;-78
2022/01/20 11:02:13;;;;;;;;;;;4.10;99.90;;;;;;5134259;27;20383;-78
2022/01/20 11:04:39;;;;;;;;;;;4.10;99.90;;;;;;5135988;27;19907;-78
2022/01/20 11:07:07;;;;;;;;;;;4.10;99.90;;;;;;5135373;27;19923;-79
2022/01/20 11:09:39;;;;;;;;;;;4.20;99.90;;;;;;5135138;27;19911;-80
2022/01/20 11:12:05;;;;;;;;;;;4.20;99.90;;;;;;5135525;27;19911;-79
2022/01/20 11:14:32;;;;;;;;;;;4.30;99.90;;;;;;5135400;27;20333;-78
2022/01/20 11:16:58;;;;;;;;;;;4.30;99.90;;;;;;5135702;27;19954;-78
2022/01/20 11:19:25;;;;;;;;;;;4.40;99.90;;;;;;5116656;27;19915;-79
2022/01/20 11:21:51;;;;;;;;;;;4.40;99.90;;;;;;5117439;27;19957;-78
2022/01/20 11:24:25;;;;;;;;;;;4.50;99.90;;;;;;5134932;27;19912;-79
2022/01/20 11:26:55;;;;;;;;;;;4.50;99.90;;;;;;5135713;27;19943;-80
2022/01/20 11:29:27;;;;;;;;;;;4.50;99.90;;;;;;5134855;27;19924;-78
2022/01/20 11:31:53;;;;;;;;;;;4.60;99.90;;;;;;5117617;27;19947;-79
2022/01/20 11:34:20;;;;;;;;;;;4.60;99.90;;;;;;5134489;27;19947;-80
2022/01/20 11:36:46;;;;;;;;;;;4.70;99.90;;;;;;5136212;27;20022;-79
2022/01/20 11:39:12;;;;;;;;;;;4.70;99.90;;;;;;5134809;27;19915;-77
2022/01/20 11:41:47;;;;;;;;;;;4.70;99.90;;;;;;5135480;27;20290;-78
2022/01/20 11:44:13;;;;;;;;;;;4.80;99.90;;;;;;5134668;27;19915;-76
2022/01/20 11:46:39;;;;;;;;;;;4.80;99.90;;;;;;5135306;27;19908;-78
2022/01/20 11:49:07;;;;;;;;;;;4.90;99.90;;;;;;5134953;27;19924;-79
2022/01/20 11:51:47;;;;;;;;;;;4.90;99.90;;;;;;5148391;27;19952;-77
2022/01/20 11:54:16;;;;;;;;;;;5.00;99.90;;;;;;5158470;27;19918;-76
2022/01/20 11:56:42;;;;;;;;;;;5.00;99.90;;;;;;5153037;27;19915;-80
2022/01/20 11:59:10;;;;;;;;;;;5.00;99.90;;;;;;5135219;27;19914;-78
2022/01/20 12:01:45;;;;;;;;;;;5.10;99.90;;;;;;5115645;27;20384;-77
2022/01/20 12:04:11;;;;;;;;;;;5.10;99.90;;;;;;5116377;27;19939;-76
2022/01/20 12:06:37;;;;;;;;;;;5.10;99.90;;;;;;5134840;27;19949;-79
2022/01/20 12:09:04;;;;;;;;;;;5.20;99.90;;;;;;5134851;27;19950;-79
2022/01/20 12:11:37;;;;;;;;;;;5.10;99.90;;;;;;5133246;27;19998;-79
2022/01/20 12:14:03;;;;;;;;;;;5.20;99.90;;;;;;5134901;27;19908;-77
2022/01/20 12:16:28;;;;;;;;;;;5.20;99.90;;;;;;5133775;27;20048;-78
2022/01/20 12:18:55;;;;;;;;;;;5.30;99.90;;;;;;5134797;27;20040;-78
2022/01/20 12:21:21;;;;;;;;;;;5.30;99.90;;;;;;5133571;27;19990;-77
2022/01/20 12:23:48;;;;;;;;;;;5.40;99.90;;;;;;5134463;27;19996;-80
2022/01/20 12:26:14;;;;;;;;;;;5.50;99.90;;;;;;5115844;27;19915;-76
2022/01/20 12:28:40;;;;;;;;;;;5.50;99.90;;;;;;5134106;27;19911;-77
2022/01/20 12:31:06;;;;;;;;;;;5.60;99.90;;;;;;5134521;27;19923;-78
2022/01/20 12:33:33;;;;;;;;;;;5.60;99.90;;;;;;5132934;27;19934;-78
2022/01/20 12:36:03;;;;;;;;;;;5.70;99.90;;;;;;5133814;27;19912;-78
2022/01/20 12:38:32;;;;;;;;;;;5.80;99.90;;;;;;5133211;27;19914;-78
2022/01/20 12:40:59;;;;;;;;;;;5.90;99.90;;;;;;5131563;27;19911;-79
2022/01/20 12:43:44;;;;;;;;;;;6.00;99.90;;;;;;5132412;27;19940;-78
2022/01/20 12:46:39;;;;;;;;;;;6.10;99.90;;;;;;5133138;27;19912;-78
2022/01/20 12:49:17;;;;;;;;;;;6.20;99.90;;;;;;5107353;27;20395;-78
2022/01/20 12:51:44;;;;;;;;;;;6.20;99.90;;;;;;5132802;27;19918;-79
2022/01/20 12:54:12;;;;;;;;;;;6.20;99.90;;;;;;5134066;27;19915;-79
2022/01/20 12:56:39;;;;;;;;;;;6.30;99.90;;;;;;5132822;27;19907;-79
2022/01/20 12:59:05;;;;;;;;;;;6.30;99.90;;;;;;5133281;27;19914;-77
2022/01/20 13:01:41;;;;;;;;;;;6.40;99.90;;;;;;5132316;27;19919;-77
2022/01/20 13:04:09;;;;;;;;;;;6.40;99.90;;;;;;5133222;27;20017;-79
2022/01/20 13:06:35;;;;;;;;;;;6.50;99.90;;;;;;5132594;27;19908;-78
2022/01/20 13:09:05;;;;;;;;;;;6.50;99.90;;;;;;5133549;27;20306;-79
2022/01/20 13:11:32;;;;;;;;;;;6.50;99.90;;;;;;5132761;27;20336;-78
2022/01/20 13:13:58;;;;;;;;;;;6.60;99.90;;;;;;5133141;27;20424;-78
2022/01/20 13:16:24;;;;;;;;;;;6.60;99.90;;;;;;5131988;27;19911;-77
2022/01/20 13:18:53;;;;;;;;;;;6.50;99.90;;;;;;5132839;27;19952;-78
2022/01/20 13:21:20;;;;;;;;;;;6.50;99.90;;;;;;5112044;28;19955;-76
2022/01/20 13:23:57;;;;;;;;;;;6.60;99.90;;;;;;5114818;27;19947;-78
2022/01/20 13:26:25;;;;;;;;;;;6.50;99.90;;;;;;5132550;27;19912;-78
2022/01/20 13:28:57;;;;;;;;;;;6.60;99.90;;;;;;5133251;27;19920;-78
2022/01/20 13:31:22;;;;;;;;;;;6.60;99.90;;;;;;5132579;27;19908;-77
2022/01/20 13:33:49;;;;;;;;;;;6.60;99.90;;;;;;5114985;27;19915;-77
2022/01/20 13:36:14;;;;;;;;;;;6.70;99.90;;;;;;5133218;27;19912;-79
2022/01/20 13:38:47;;;;;;;;;;;6.70;99.90;;;;;;5132428;27;20715;-77
2022/01/20 13:41:14;;;;;;;;;;;6.70;99.90;;;;;;5133559;27;19911;-77
2022/01/20 13:46:32;;;;;;;;;;;6.70;99.90;;;;;;5131869;28;19956;-77
2022/01/20 13:49:17;;;;;;;;;;;6.70;99.90;;;;;;5132244;27;19923;-78
2022/01/20 13:51:44;;;;;;;;;;;6.70;99.90;;;;;;5130927;28;19911;-79
2022/01/20 13:54:09;;;;;;;;;;;6.60;99.90;;;;;;5132764;28;19907;-78
2022/01/20 13:56:35;;;;;;;;;;;6.60;99.90;;;;;;5132156;28;19911;-78
2022/01/20 13:59:04;;;;;;;;;;;6.70;99.90;;;;;;5133106;28;19908;-77
2022/01/20 14:01:29;;;;;;;;;;;6.60;99.90;;;;;;5132388;28;19907;-79
2022/01/20 14:03:55;;;;;;;;;;;6.60;99.90;;;;;;5132745;28;19957;-79
2022/01/20 14:06:21;;;;;;;;;;;6.70;99.90;;;;;;5132639;28;20290;-76
2022/01/20 14:08:48;;;;;;;;;;;6.70;99.90;;;;;;5132576;28;20252;-78
2022/01/20 14:11:14;;;;;;;;;;;6.70;99.90;;;;;;5132787;28;19911;-78
2022/01/20 14:13:40;;;;;;;;;;;6.70;99.90;;;;;;5131484;28;20010;-78
2022/01/20 14:16:06;;;;;;;;;;;6.80;99.90;;;;;;5133076;28;19963;-77
2022/01/20 14:18:40;;;;;;;;;;;6.80;99.90;;;;;;5130139;28;20081;-78
2022/01/20 14:21:07;;;;;;;;;;;6.80;99.90;;;;;;5129358;28;19915;-78
2022/01/20 14:23:32;;;;;;;;;;;6.80;99.90;;;;;;5131613;28;19907;-79
2022/01/20 14:26:00;;;;;;;;;;;6.90;99.90;;;;;;5113563;28;19907;-77
2022/01/20 14:28:26;;;;;;;;;;;6.90;99.90;;;;;;5130070;28;19923;-77
2022/01/20 14:30:51;;;;;;;;;;;6.90;99.90;;;;;;5131718;28;20037;-77
2022/01/20 14:33:17;;;;;;;;;;;6.90;99.90;;;;;;5131985;27;19946;-77
2022/01/20 14:35:44;;;;;;;;;;;7.00;99.90;;;;;;5133406;27;19919;-78
2022/01/20 14:38:10;;;;;;;;;;;7.00;99.90;;;;;;5135564;27;19964;-77
2022/01/20 14:40:36;;;;;;;;;;;7.00;99.90;;;;;;5135323;27;19980;-78
2022/01/20 14:43:01;;;;;;;;;;;7.00;99.90;;;;;;5136036;27;19908;-77
2022/01/20 14:45:27;;;;;;;;;;;7.00;99.90;;;;;;5134724;27;19907;-77
2022/01/20 14:47:53;;;;;;;;;;;7.10;99.90;;;;;;5135907;27;19925;-78
2022/01/20 14:50:23;;;;;;;;;;;7.00;99.90;;;;;;5135761;27;19907;-77
2022/01/20 14:52:49;;;;;;;;;;;7.10;99.90;;;;;;5117173;27;19930;-78
2022/01/20 14:55:15;;;;;;;;;;;7.10;99.90;;;;;;5117587;27;19908;-78
2022/01/20 14:57:41;;;;;;;;;;;7.10;99.90;;;;;;5116400;27;20743;-78
2022/01/20 15:00:07;;;;;;;;;;;7.10;99.90;;;;;;5135547;27;19916;-78
2022/01/20 15:02:33;;;;;;;;;;;7.20;99.90;;;;;;5133132;27;19912;-78
2022/01/20 15:04:58;;;;;;;;;;;7.20;99.90;;;;;;5136157;27;19972;-77
2022/01/20 15:07:24;;;;;;;;;;;7.20;99.90;;;;;;5135087;27;19911;-77
2022/01/20 15:09:49;;;;;;;;;;;7.20;99.90;;;;;;5135091;27;19911;-80
2022/01/20 15:12:15;;;;;;;;;;;7.20;99.90;;;;;;5135330;27;20273;-81
2022/01/20 15:14:41;;;;;;;;;;;7.20;99.90;;;;;;5134323;27;19914;-79
2022/01/20 15:17:06;;;;;;;;;;;7.20;99.90;;;;;;5135253;27;19951;-80
2022/01/20 15:19:33;;;;;;;;;;;7.20;99.90;;;;;;5134442;27;19960;-78
2022/01/20 15:21:59;;;;;;;;;;;7.20;99.90;;;;;;5135020;27;19907;-80
2022/01/20 15:24:26;;;;;;;;;;;7.20;99.90;;;;;;5134161;27;19914;-76
2022/01/20 15:26:52;;;;;;;;;;;7.20;99.90;;;;;;5134283;27;20288;-78
2022/01/20 15:29:17;;;;;;;;;;;7.20;99.90;;;;;;5134969;27;20375;-77
2022/01/20 15:31:43;;;;;;;;;;;7.20;99.90;;;;;;5134452;27;19912;-77
2022/01/20 15:34:12;;;;;;;;;;;7.20;99.90;;;;;;5135359;27;20344;-77